createdAt,value
2022-12-29T00:02:18.468Z,9.36
2022-12-29T00:04:45.439Z,9.35
2022-12-29T00:07:12.286Z,9.45
2022-12-29T00:09:39.277Z,9.43
2022-12-29T00:12:06.162Z,9.47
2022-12-29T00:14:51.408Z,9.48
2022-12-29T00:17:18.223Z,9.42
2022-12-29T00:20:03.464Z,9.41
2022-12-29T00:22:48.796Z,9.43
2022-12-29T00:25:34.033Z,9.50
2022-12-29T00:28:19.521Z,9.58
2022-12-29T00:31:04.976Z,9.34
2022-12-29T00:33:52.912Z,9.46
2022-12-29T00:36:22.644Z,9.58
2022-12-29T00:39:19.550Z,9.59
2022-12-29T00:42:05.394Z,9.50
2022-12-29T00:44:32.087Z,9.56
2022-12-29T00:47:03.403Z,9.58
2022-12-29T00:49:33.796Z,9.35
2022-12-29T00:52:05.312Z,9.55
2022-12-29T00:54:37.160Z,9.40
2022-12-29T00:57:04.893Z,9.48
2022-12-29T00:59:31.958Z,9.46
2022-12-29T01:01:59.739Z,9.51
2022-12-29T01:04:28.620Z,9.49
2022-12-29T01:06:55.260Z,9.63
2022-12-29T01:09:40.696Z,9.58
2022-12-29T01:12:09.413Z,9.51
2022-12-29T01:14:36.684Z,9.45
2022-12-29T01:17:03.601Z,9.53
2022-12-29T01:19:30.274Z,9.51
2022-12-29T01:21:56.997Z,9.67
2022-12-29T01:24:23.761Z,9.53
2022-12-29T01:26:50.607Z,9.66
2022-12-29T01:29:17.533Z,9.70
2022-12-29T01:31:46.055Z,9.64
2022-12-29T01:34:12.849Z,9.35
2022-12-29T01:36:39.649Z,9.55
2022-12-29T01:39:06.376Z,9.56
2022-12-29T01:41:33.408Z,9.55
2022-12-29T01:44:02.837Z,9.57
2022-12-29T01:46:34.576Z,9.63
2022-12-29T01:49:04.395Z,9.67
2022-12-29T01:51:33.119Z,9.49
2022-12-29T01:54:03.766Z,9.59
2022-12-29T01:56:30.450Z,9.74
2022-12-29T01:59:02.793Z,9.80
2022-12-29T02:01:29.714Z,9.54
2022-12-29T02:03:56.427Z,9.67
2022-12-29T02:06:32.298Z,9.54
2022-12-29T02:08:59.149Z,9.62
2022-12-29T02:11:27.695Z,9.65
2022-12-29T02:13:54.367Z,9.62
2022-12-29T02:16:35.727Z,9.72
2022-12-29T02:19:24.214Z,9.87
2022-12-29T02:22:43.848Z,9.84
2022-12-29T02:25:28.754Z,9.68
2022-12-29T02:28:18.743Z,9.83
2022-12-29T02:30:57.566Z,9.72
2022-12-29T02:33:42.875Z,9.85
2022-12-29T02:36:21.579Z,9.96
2022-12-29T02:39:03.394Z,9.88
2022-12-29T02:41:59.779Z,10.00
2022-12-29T02:44:32.431Z,10.06
2022-12-29T02:47:24.925Z,10.00
2022-12-29T02:49:59.085Z,9.99
2022-12-29T02:52:37.069Z,10.05
2022-12-29T02:55:03.907Z,10.22
2022-12-29T02:57:35.010Z,10.27
2022-12-29T03:00:09.264Z,10.21
2022-12-29T03:03:08.011Z,10.27
2022-12-29T03:05:47.029Z,10.32
2022-12-29T03:08:50.508Z,10.21
2022-12-29T03:11:36.443Z,10.41
2022-12-29T03:14:22.293Z,10.37
2022-12-29T03:16:53.700Z,10.46
2022-12-29T03:19:30.011Z,10.44
2022-12-29T03:22:17.025Z,10.45
2022-12-29T03:24:52.049Z,10.35
2022-12-29T03:27:22.412Z,10.48
2022-12-29T03:29:56.886Z,10.60
2022-12-29T03:32:27.634Z,10.55
2022-12-29T03:34:54.939Z,10.69
2022-12-29T03:37:25.916Z,10.68
2022-12-29T03:39:53.219Z,10.55
2022-12-29T03:42:25.112Z,10.68
2022-12-29T03:44:54.993Z,10.65
2022-12-29T03:47:22.029Z,10.70
2022-12-29T03:49:49.079Z,10.81
2022-12-29T03:52:16.568Z,10.80
2022-12-29T03:54:45.294Z,10.77
2022-12-29T03:57:13.051Z,10.86
2022-12-29T03:59:53.747Z,10.79
2022-12-29T04:02:20.579Z,10.67
2022-12-29T04:04:47.551Z,10.83
2022-12-29T04:07:14.235Z,10.81
2022-12-29T04:09:42.331Z,10.80
2022-12-29T04:12:12.213Z,10.92
2022-12-29T04:14:38.855Z,11.04
2022-12-29T04:17:05.488Z,11.00
2022-12-29T04:19:33.349Z,11.01
2022-12-29T04:22:01.423Z,10.94
2022-12-29T04:24:28.526Z,10.91
2022-12-29T04:26:55.425Z,10.99
2022-12-29T04:29:41.886Z,10.99
2022-12-29T04:32:18.443Z,10.94
2022-12-29T04:34:49.284Z,11.06
2022-12-29T04:37:16.248Z,11.02
2022-12-29T04:39:42.876Z,11.07
2022-12-29T04:42:09.736Z,11.13
2022-12-29T04:44:39.899Z,11.03
2022-12-29T04:47:15.040Z,10.98
2022-12-29T04:49:55.685Z,10.78
2022-12-29T04:52:42.630Z,10.58
2022-12-29T04:55:11.192Z,10.86
2022-12-29T04:57:38.029Z,10.97
2022-12-29T05:00:05.622Z,11.01
2022-12-29T05:02:32.462Z,11.06
2022-12-29T05:04:59.286Z,11.05
2022-12-29T05:07:26.909Z,11.08
2022-12-29T05:09:54.762Z,11.11
2022-12-29T05:12:21.464Z,11.15
2022-12-29T05:14:58.834Z,10.98
2022-12-29T05:17:25.621Z,11.15
2022-12-29T05:19:52.959Z,11.12
2022-12-29T05:22:20.086Z,11.02
2022-12-29T05:24:47.191Z,11.05
2022-12-29T05:27:14.525Z,11.01
2022-12-29T05:30:06.750Z,11.03
2022-12-29T05:32:34.522Z,11.11
2022-12-29T05:35:01.226Z,11.32
2022-12-29T05:37:28.714Z,11.36
2022-12-29T05:39:55.452Z,11.42
2022-12-29T05:42:22.194Z,11.42
2022-12-29T05:44:54.991Z,11.31
2022-12-29T05:47:32.614Z,11.32
2022-12-29T05:50:10.777Z,11.37
2022-12-29T05:52:55.735Z,11.33
2022-12-29T05:55:22.906Z,11.34
2022-12-29T05:57:52.559Z,11.41
2022-12-29T06:00:19.350Z,11.29
2022-12-29T06:02:47.298Z,11.42
2022-12-29T06:05:15.810Z,11.34
2022-12-29T06:07:42.505Z,11.40
2022-12-29T06:10:09.312Z,11.61
2022-12-29T06:12:56.234Z,11.60
2022-12-29T06:15:23.176Z,11.52
2022-12-29T06:17:50.887Z,11.53
2022-12-29T06:20:18.245Z,11.63
2022-12-29T06:22:44.943Z,11.62
2022-12-29T06:25:11.730Z,11.59
2022-12-29T06:27:39.497Z,11.71
2022-12-29T06:30:06.648Z,11.59
2022-12-29T06:32:33.307Z,11.68
2022-12-29T06:35:07.067Z,11.71
2022-12-29T06:37:37.653Z,11.80
2022-12-29T06:40:04.670Z,11.72
2022-12-29T06:42:43.413Z,11.75
2022-12-29T06:45:30.373Z,11.65
2022-12-29T06:47:57.254Z,11.81
2022-12-29T06:50:23.898Z,11.86
2022-12-29T06:52:50.540Z,11.66
2022-12-29T06:55:17.506Z,11.63
2022-12-29T06:57:44.129Z,11.60
2022-12-29T07:00:11.163Z,11.53
2022-12-29T07:02:37.861Z,11.56
2022-12-29T07:05:04.727Z,11.69
2022-12-29T07:07:31.374Z,11.69
2022-12-29T07:09:58.019Z,11.57
2022-12-29T07:12:24.646Z,11.59
2022-12-29T07:14:51.330Z,11.49
2022-12-29T07:17:17.947Z,11.25
2022-12-29T07:19:45.559Z,11.48
2022-12-29T07:22:12.309Z,11.45
2022-12-29T07:24:38.928Z,11.40
2022-12-29T07:27:05.694Z,11.51
2022-12-29T07:29:35.583Z,11.38
2022-12-29T07:32:02.318Z,11.55
2022-12-29T07:34:29.043Z,11.55
2022-12-29T07:36:55.677Z,11.39
2022-12-29T07:39:22.297Z,11.41
2022-12-29T07:41:48.915Z,11.22
2022-12-29T07:44:20.223Z,11.31
2022-12-29T07:47:00.393Z,11.40
2022-12-29T07:49:27.410Z,11.38
2022-12-29T07:51:54.077Z,11.34
2022-12-29T07:54:20.963Z,11.20
2022-12-29T07:56:47.632Z,11.33
2022-12-29T07:59:14.485Z,11.49
2022-12-29T08:01:41.356Z,11.57
2022-12-29T08:04:08.288Z,11.57
2022-12-29T08:06:35.055Z,11.60
2022-12-29T08:09:09.876Z,11.70
2022-12-29T08:11:41.407Z,11.61
2022-12-29T08:14:08.366Z,11.63
2022-12-29T08:16:35.453Z,11.63
2022-12-29T08:19:02.410Z,11.57
2022-12-29T08:21:29.609Z,11.63
2022-12-29T08:23:56.729Z,11.61
2022-12-29T08:26:23.366Z,11.72
2022-12-29T08:28:53.602Z,11.63
2022-12-29T08:31:20.332Z,11.67
2022-12-29T08:33:47.034Z,11.48
2022-12-29T08:36:13.617Z,11.61
2022-12-29T08:38:43.239Z,11.71
2022-12-29T08:41:09.910Z,11.68
2022-12-29T08:43:36.557Z,11.68
2022-12-29T08:46:03.320Z,11.57
2022-12-29T08:48:30.119Z,11.70
2022-12-29T08:50:56.794Z,11.71
2022-12-29T08:53:23.501Z,11.63
2022-12-29T08:56:03.705Z,11.63
2022-12-29T08:58:33.332Z,11.80
2022-12-29T09:01:00.473Z,11.72
2022-12-29T09:06:15.829Z,12.04
2022-12-29T09:08:42.659Z,11.91
2022-12-29T09:11:21.467Z,11.98
2022-12-29T09:13:48.507Z,12.18
2022-12-29T09:16:15.627Z,11.99
2022-12-29T09:18:43.088Z,12.09
2022-12-29T09:21:11.043Z,12.17
2022-12-29T09:23:38.175Z,12.26
2022-12-29T09:26:05.105Z,12.36
2022-12-29T09:28:32.194Z,12.49
2022-12-29T09:31:00.003Z,12.63
2022-12-29T09:33:27.021Z,12.72
2022-12-29T09:35:55.853Z,12.93
2022-12-29T09:38:22.840Z,12.84
2022-12-29T09:40:56.943Z,12.86
2022-12-29T09:43:42.354Z,12.82
2022-12-29T09:46:18.644Z,12.94
2022-12-29T09:48:49.185Z,12.97
2022-12-29T09:51:18.471Z,13.03
2022-12-29T09:54:05.046Z,13.16
2022-12-29T09:56:32.089Z,13.37
2022-12-29T09:59:21.567Z,13.45
2022-12-29T10:02:27.557Z,13.37
2022-12-29T10:04:54.290Z,13.39
2022-12-29T10:07:42.955Z,13.37
2022-12-29T10:10:34.650Z,13.47
2022-12-29T10:13:14.595Z,13.73
2022-12-29T10:15:56.410Z,13.71
2022-12-29T10:19:02.562Z,13.82
2022-12-29T10:21:50.844Z,13.93
2022-12-29T10:24:22.717Z,13.89
2022-12-29T10:26:52.330Z,14.01
2022-12-29T10:29:26.068Z,14.05
2022-12-29T10:32:00.286Z,14.24
2022-12-29T10:34:30.710Z,14.24
2022-12-29T10:37:15.507Z,14.28
2022-12-29T10:39:47.333Z,14.39
2022-12-29T10:42:19.330Z,14.18
2022-12-29T10:44:46.079Z,14.12
2022-12-29T10:47:18.897Z,14.08
2022-12-29T10:49:49.754Z,13.98
2022-12-29T10:52:18.796Z,13.82
2022-12-29T10:55:04.769Z,13.81
2022-12-29T10:57:41.085Z,13.87
2022-12-29T11:00:16.328Z,13.85
2022-12-29T11:03:17.026Z,13.90
2022-12-29T11:05:53.352Z,13.98
2022-12-29T11:08:26.478Z,13.77
2022-12-29T11:11:03.130Z,13.86
2022-12-29T11:13:38.308Z,13.81
2022-12-29T11:16:05.665Z,13.59
2022-12-29T11:18:37.127Z,13.58
2022-12-29T11:21:07.724Z,13.51
2022-12-29T11:23:38.770Z,13.51
2022-12-29T11:26:11.282Z,13.59
2022-12-29T11:28:39.470Z,13.49
2022-12-29T11:31:08.128Z,13.33
2022-12-29T11:33:40.000Z,13.37
2022-12-29T11:36:16.646Z,13.29
2022-12-29T11:38:47.230Z,13.18
2022-12-29T11:41:21.140Z,13.16
2022-12-29T11:43:48.895Z,13.02
2022-12-29T11:46:22.290Z,13.15
2022-12-29T11:48:49.775Z,12.99
2022-12-29T11:51:39.207Z,12.74
2022-12-29T11:54:06.576Z,12.79
2022-12-29T11:56:44.063Z,12.64
2022-12-29T11:59:53.220Z,12.65
2022-12-29T12:02:43.719Z,12.40
2022-12-29T12:05:19.777Z,12.32
2022-12-29T12:07:49.061Z,12.04
2022-12-29T12:10:23.734Z,12.02
2022-12-29T12:13:00.238Z,12.17
2022-12-29T12:15:33.034Z,12.08
2022-12-29T12:18:37.386Z,12.00
2022-12-29T12:21:13.986Z,11.97
2022-12-29T12:24:16.408Z,12.00
2022-12-29T12:26:59.899Z,11.93
2022-12-29T12:29:38.354Z,11.96
2022-12-29T12:32:19.861Z,11.96
2022-12-29T12:34:47.545Z,11.98
2022-12-29T12:37:14.179Z,11.92
2022-12-29T12:40:06.463Z,11.92
2022-12-29T12:42:50.237Z,11.92
2022-12-29T12:45:33.024Z,11.88
2022-12-29T12:48:25.496Z,12.00
2022-12-29T12:51:02.219Z,12.00
2022-12-29T12:53:53.702Z,11.92
2022-12-29T12:56:40.330Z,12.00
2022-12-29T12:59:16.221Z,12.04
2022-12-29T13:01:58.548Z,12.00
2022-12-29T13:04:38.047Z,11.95
2022-12-29T13:07:29.770Z,12.11
2022-12-29T13:10:34.100Z,12.13
2022-12-29T13:13:37.117Z,12.13
2022-12-29T13:16:14.916Z,12.25
2022-12-29T13:18:49.765Z,12.22
2022-12-29T13:21:28.902Z,12.19
2022-12-29T13:24:26.336Z,12.20
2022-12-29T13:26:59.569Z,12.16
2022-12-29T13:29:54.488Z,12.12
2022-12-29T13:32:30.191Z,12.16
2022-12-29T13:35:17.879Z,12.07
2022-12-29T13:37:52.423Z,12.06
2022-12-29T13:40:24.085Z,12.20
2022-12-29T13:42:52.049Z,12.20
2022-12-29T13:45:22.372Z,12.09
2022-12-29T13:47:55.746Z,12.14
2022-12-29T13:50:25.643Z,12.17
2022-12-29T13:53:03.782Z,12.13
2022-12-29T13:55:38.780Z,12.09
2022-12-29T13:58:43.015Z,12.10
2022-12-29T14:01:15.579Z,12.08
2022-12-29T14:03:44.746Z,12.14
2022-12-29T14:06:26.706Z,12.09
2022-12-29T14:08:56.272Z,12.02
2022-12-29T14:11:28.238Z,12.06
2022-12-29T14:13:55.401Z,12.02
2022-12-29T14:16:28.407Z,12.04
2022-12-29T14:18:58.287Z,11.97
2022-12-29T14:21:30.805Z,11.99
2022-12-29T14:24:27.280Z,11.98
2022-12-29T14:26:53.883Z,11.92
2022-12-29T14:29:26.700Z,11.83
2022-12-29T14:31:54.074Z,11.88
2022-12-29T14:34:21.601Z,11.84
2022-12-29T14:37:01.449Z,11.77
2022-12-29T14:39:39.127Z,11.78
2022-12-29T14:42:11.787Z,11.72
2022-12-29T14:44:50.686Z,11.86
2022-12-29T14:47:23.978Z,11.69
2022-12-29T14:49:50.714Z,11.76
2022-12-29T14:52:24.187Z,11.74
2022-12-29T14:54:54.964Z,11.75
2022-12-29T14:57:26.286Z,11.73
2022-12-29T15:00:09.152Z,11.66
2022-12-29T15:02:41.732Z,11.75
2022-12-29T15:05:26.321Z,11.70
2022-12-29T15:07:59.832Z,11.78
2022-12-29T15:10:27.487Z,11.69
2022-12-29T15:13:05.668Z,11.53
2022-12-29T15:15:37.695Z,11.53
2022-12-29T15:18:40.395Z,11.32
2022-12-29T15:21:07.731Z,11.41
2022-12-29T15:23:36.105Z,11.43
2022-12-29T15:26:08.058Z,11.45
2022-12-29T15:28:46.572Z,11.35
2022-12-29T15:31:28.029Z,11.27
2022-12-29T15:34:04.420Z,11.15
2022-12-29T15:36:39.109Z,11.12
2022-12-29T15:39:31.808Z,11.12
2022-12-29T15:42:33.622Z,10.99
2022-12-29T15:45:10.208Z,11.11
2022-12-29T15:47:39.803Z,10.95
2022-12-29T15:50:21.981Z,10.97
2022-12-29T15:52:48.904Z,11.01
2022-12-29T15:55:28.627Z,10.92
2022-12-29T15:58:00.196Z,10.94
2022-12-29T16:00:32.953Z,10.92
2022-12-29T16:03:02.432Z,10.85
2022-12-29T16:05:34.726Z,10.87
2022-12-29T16:08:02.560Z,10.87
2022-12-29T16:10:37.198Z,10.95
2022-12-29T16:13:07.590Z,11.00
2022-12-29T16:15:34.333Z,10.99
2022-12-29T16:18:07.238Z,10.99
2022-12-29T16:20:41.301Z,11.03
2022-12-29T16:23:19.352Z,11.04
2022-12-29T16:25:46.182Z,11.07
2022-12-29T16:28:23.905Z,11.10
2022-12-29T16:31:05.348Z,10.99
2022-12-29T16:33:41.278Z,10.98
2022-12-29T16:36:28.171Z,11.02
2022-12-29T16:39:24.566Z,11.02
2022-12-29T16:41:51.557Z,11.03
2022-12-29T16:44:32.002Z,10.96
2022-12-29T16:47:10.939Z,10.95
2022-12-29T16:49:48.717Z,10.72
2022-12-29T16:52:20.683Z,10.92
2022-12-29T16:54:54.264Z,11.02
2022-12-29T16:57:29.946Z,10.89
2022-12-29T17:00:00.815Z,10.93
2022-12-29T17:02:30.246Z,11.03
2022-12-29T17:04:56.980Z,11.04
2022-12-29T17:07:25.605Z,11.06
2022-12-29T17:09:54.353Z,11.02
2022-12-29T17:12:27.323Z,11.03
2022-12-29T17:14:57.786Z,11.26
2022-12-29T17:17:35.699Z,11.32
2022-12-29T17:20:17.570Z,11.46
2022-12-29T17:22:44.848Z,11.27
2022-12-29T17:25:19.603Z,11.39
2022-12-29T17:27:49.273Z,11.33
2022-12-29T17:30:18.033Z,11.40
2022-12-29T17:32:58.733Z,11.53
2022-12-29T17:35:25.786Z,11.61
2022-12-29T17:37:53.206Z,11.61
2022-12-29T17:40:29.585Z,11.66
2022-12-29T17:42:57.515Z,11.53
2022-12-29T17:45:29.075Z,11.58
2022-12-29T17:47:56.413Z,11.66
2022-12-29T17:50:26.751Z,11.57
2022-12-29T17:53:00.732Z,11.45
2022-12-29T17:55:32.992Z,11.46
2022-12-29T17:58:16.025Z,11.03
2022-12-29T18:00:43.875Z,11.24
2022-12-29T18:03:24.403Z,11.28
2022-12-29T18:05:51.176Z,11.22
2022-12-29T18:08:17.869Z,11.25
2022-12-29T18:10:44.690Z,11.12
2022-12-29T18:13:29.358Z,11.26
2022-12-29T18:16:05.738Z,11.16
2022-12-29T18:18:32.503Z,11.10
2022-12-29T18:21:00.306Z,11.17
2022-12-29T18:23:32.603Z,10.92
2022-12-29T18:26:00.872Z,10.76
2022-12-29T18:28:28.504Z,10.93
2022-12-29T18:30:57.407Z,11.03
2022-12-29T18:33:26.656Z,10.95
2022-12-29T18:36:02.336Z,11.08
2022-12-29T18:38:29.979Z,11.07
2022-12-29T18:40:57.222Z,11.06
2022-12-29T18:43:23.926Z,10.99
2022-12-29T18:45:50.888Z,11.04
2022-12-29T18:48:18.668Z,10.99
2022-12-29T18:50:46.695Z,11.10
2022-12-29T18:53:22.321Z,11.15
2022-12-29T18:55:51.188Z,11.06
2022-12-29T18:58:18.145Z,10.94
2022-12-29T19:00:45.052Z,11.06
2022-12-29T19:03:17.154Z,10.96
2022-12-29T19:05:45.384Z,10.95
2022-12-29T19:08:12.369Z,10.91
2022-12-29T19:10:39.995Z,10.80
2022-12-29T19:13:06.759Z,10.74
2022-12-29T19:15:40.521Z,10.74
2022-12-29T19:20:56.868Z,10.67
2022-12-29T19:23:25.681Z,10.64
2022-12-29T19:25:54.345Z,10.68
2022-12-29T19:28:26.391Z,10.62
2022-12-29T19:30:57.426Z,10.53
2022-12-29T19:33:24.441Z,10.59
2022-12-29T19:35:51.758Z,10.57
2022-12-29T19:38:19.489Z,10.70
2022-12-29T19:40:48.920Z,10.50
2022-12-29T19:43:15.572Z,10.64
2022-12-29T19:45:43.721Z,10.62
2022-12-29T19:48:19.528Z,10.68
2022-12-29T19:50:46.550Z,10.74
2022-12-29T19:53:13.596Z,10.73
2022-12-29T19:55:44.653Z,10.73
2022-12-29T19:58:12.247Z,10.80
2022-12-29T20:00:40.390Z,10.73
2022-12-29T20:03:07.146Z,10.85
2022-12-29T20:05:34.027Z,10.88
2022-12-29T20:08:00.668Z,10.82
2022-12-29T20:10:27.382Z,10.92
2022-12-29T20:12:54.110Z,10.95
2022-12-29T20:15:20.788Z,11.03
2022-12-29T20:18:16.286Z,10.82
2022-12-29T20:20:34.879Z,10.96
2022-12-29T20:23:01.626Z,10.95
2022-12-29T20:25:46.754Z,11.02
2022-12-29T20:28:15.690Z,11.00
2022-12-29T20:30:42.560Z,10.88
2022-12-29T20:33:09.338Z,11.05
2022-12-29T20:35:36.601Z,11.11
2022-12-29T20:38:03.975Z,11.08
2022-12-29T20:40:30.758Z,11.14
2022-12-29T20:42:57.429Z,11.14
2022-12-29T20:45:24.490Z,11.23
2022-12-29T20:47:51.232Z,11.17
2022-12-29T20:50:18.015Z,11.30
2022-12-29T20:52:44.852Z,11.22
2022-12-29T20:55:11.650Z,11.25
2022-12-29T20:58:22.131Z,11.27
2022-12-29T21:00:25.871Z,11.22
2022-12-29T21:02:53.186Z,11.27
2022-12-29T21:05:24.348Z,11.18
2022-12-29T21:07:52.738Z,11.26
2022-12-29T21:10:19.598Z,11.28
2022-12-29T21:12:46.482Z,11.29
2022-12-29T21:15:15.129Z,11.28
2022-12-29T21:17:43.709Z,11.18
2022-12-29T21:20:20.045Z,11.26
2022-12-29T21:22:50.745Z,11.39
2022-12-29T21:25:17.599Z,11.12
2022-12-29T21:27:44.399Z,11.27
2022-12-29T21:30:12.114Z,11.26
2022-12-29T21:32:39.591Z,11.09
2022-12-29T21:35:07.450Z,11.18
2022-12-29T21:37:34.492Z,11.31
2022-12-29T21:40:01.160Z,11.06
2022-12-29T21:42:27.963Z,11.10
2022-12-29T21:45:19.841Z,11.07
2022-12-29T21:48:06.114Z,10.95
2022-12-29T21:50:32.842Z,10.97
2022-12-29T21:52:59.560Z,10.95
2022-12-29T21:55:26.212Z,10.82
2022-12-29T21:58:22.082Z,10.88
2022-12-29T22:01:09.076Z,10.69
2022-12-29T22:03:57.209Z,10.82
2022-12-29T22:06:42.389Z,10.79
2022-12-29T22:09:30.364Z,10.73
2022-12-29T22:12:15.665Z,10.66
2022-12-29T22:14:42.283Z,10.61
2022-12-29T22:17:14.007Z,10.64
2022-12-29T22:19:41.022Z,10.68
2022-12-29T22:22:07.714Z,10.48
2022-12-29T22:24:34.340Z,10.54
2022-12-29T22:27:01.064Z,10.43
2022-12-29T22:29:27.885Z,10.48
2022-12-29T22:31:54.590Z,10.47
2022-12-29T22:34:21.230Z,10.55
2022-12-29T22:36:47.991Z,10.67
2022-12-29T22:39:14.763Z,10.61
2022-12-29T22:41:41.395Z,10.35
2022-12-29T22:44:08.149Z,10.32
2022-12-29T22:46:34.979Z,10.41
2022-12-29T22:49:01.697Z,10.44
2022-12-29T22:51:28.371Z,10.45
2022-12-29T22:53:55.081Z,10.30
2022-12-29T22:56:22.043Z,10.29
2022-12-29T22:58:51.710Z,10.34
2022-12-29T23:01:22.542Z,10.32
2022-12-29T23:03:52.863Z,10.33
2022-12-29T23:06:19.559Z,10.35
2022-12-29T23:08:47.500Z,10.20
2022-12-29T23:11:14.615Z,10.32
2022-12-29T23:13:41.825Z,10.42
2022-12-29T23:16:09.632Z,10.37
2022-12-29T23:18:37.144Z,10.54
2022-12-29T23:21:04.236Z,10.53
2022-12-29T23:23:50.101Z,10.57
2022-12-29T23:26:17.876Z,10.62
2022-12-29T23:28:44.670Z,10.60
2022-12-29T23:31:11.388Z,10.64
2022-12-29T23:33:38.228Z,10.62
2022-12-29T23:36:05.471Z,10.63
2022-12-29T23:38:32.112Z,10.69
2022-12-29T23:40:58.768Z,10.62
2022-12-29T23:43:25.384Z,10.48
2022-12-29T23:45:52.147Z,10.58
2022-12-29T23:48:19.490Z,10.42
2022-12-29T23:50:46.224Z,10.45
2022-12-29T23:53:13.196Z,10.39
2022-12-29T23:55:44.145Z,10.27
2022-12-29T23:58:11.397Z,10.48
